Hebei Shijiazhuang — VRIS2 — position and weather

sailwx.info

Track history (hours):
 
Tides and Currents Weather Stations Pressure Air Temp Water Temp Dewpoint Dewpoint Depression Visibility Wind Speed Wind Dir Waves Ship Positions

Hebei Shijiazhuang

Last reported at 2016-Jun-28 14:15 UTC. Time now 2016-Jul-01 08:17 UTC.
Position N 22°34' E 119°53'.

Length 235 m.

Type: Cargo ship. MMSI: 477899000.

Date/timePositionNaut miles runAvg speedWind from/ knotsBaromVisibWave heightAir tempDewpointWater temp
2016-Jun-28 14:15N 22°34' E 119°53'912.3
2016-Jun-28 13:33N 22°41' E 119°60'  
2016-Jun-25 14:30N 22°39' E 120°12'0 0.0
2016-Jun-25 13:30N 22°39' E 120°12'0 0.0
2016-Jun-25 12:30N 22°39' E 120°12'0 0.1
2016-Jun-25 11:24N 22°39' E 120°12'0 0.0
2016-Jun-25 10:30N 22°39' E 120°12'0 0.0
2016-Jun-25 09:30N 22°39' E 120°12'0 0.0
2016-Jun-25 08:33N 22°39' E 120°12'0 0.1
2016-Jun-25 07:33N 22°39' E 120°12'4 4.3
2016-Jun-25 06:32N 22°35' E 120°12'8 7.7
2016-Jun-25 05:33N 22°33' E 120°20'0 0.2
2016-Jun-25 04:23N 22°32' E 120°20'0 0.0
2016-Jun-25 03:23N 22°32' E 120°20'0 0.0
2016-Jun-25 02:29N 22°32' E 120°20'0 0.0
2016-Jun-25 01:24N 22°32' E 120°20'1 1.4
2016-Jun-25 00:33N 22°33' E 120°19'3 3.1
2016-Jun-24 23:33N 22°32' E 120°16'2 2.0
2016-Jun-24 22:32N 22°30' E 120°15'0 0.1
2016-Jun-24 21:32N 22°30' E 120°15'0 0.1
2016-Jun-24 20:32N 22°30' E 120°15'0 0.1
2016-Jun-24 19:32N 22°30' E 120°15'0 0.1
2016-Jun-24 18:32N 22°30' E 120°15'0 0.0
2016-Jun-24 17:26N 22°30' E 120°15'0 0.1
2016-Jun-24 16:33N 22°30' E 120°15'5 5.1
2016-Jun-24 15:33N 22°25' E 120°14'1010.0
2016-Jun-24 14:33N 22°15' E 120°12'  
Track history (hours):
 
Tides and Currents Weather Stations Pressure Air Temp Water Temp Dewpoint Dewpoint Depression Visibility Wind Speed Wind Dir Waves Ship Positions

Hebei Shijiazhuang

Last reported at 2016-Jun-28 14:15 UTC. Time now 2016-Jul-01 08:17 UTC.
Position N 22°34' E 119°53'.

Length 235 m.

Type: Cargo ship. MMSI: 477899000.

Date/timePositionNaut miles runAvg speedWind from/ knotsBaromVisibWave heightAir tempDewpointWater temp
2016-Jun-28 14:15N 22°34' E 119°53'912.3
2016-Jun-28 13:33N 22°41' E 119°60'  
2016-Jun-25 14:30N 22°39' E 120°12'0 0.0
2016-Jun-25 13:30N 22°39' E 120°12'0 0.0
2016-Jun-25 12:30N 22°39' E 120°12'0 0.1
2016-Jun-25 11:24N 22°39' E 120°12'0 0.0
2016-Jun-25 10:30N 22°39' E 120°12'0 0.0
2016-Jun-25 09:30N 22°39' E 120°12'0 0.0
2016-Jun-25 08:33N 22°39' E 120°12'0 0.1
2016-Jun-25 07:33N 22°39' E 120°12'4 4.3
2016-Jun-25 06:32N 22°35' E 120°12'8 7.7
2016-Jun-25 05:33N 22°33' E 120°20'0 0.2
2016-Jun-25 04:23N 22°32' E 120°20'0 0.0
2016-Jun-25 03:23N 22°32' E 120°20'0 0.0
2016-Jun-25 02:29N 22°32' E 120°20'0 0.0
2016-Jun-25 01:24N 22°32' E 120°20'1 1.4
2016-Jun-25 00:33N 22°33' E 120°19'3 3.1
2016-Jun-24 23:33N 22°32' E 120°16'2 2.0
2016-Jun-24 22:32N 22°30' E 120°15'0 0.1
2016-Jun-24 21:32N 22°30' E 120°15'0 0.1
2016-Jun-24 20:32N 22°30' E 120°15'0 0.1
2016-Jun-24 19:32N 22°30' E 120°15'0 0.1
2016-Jun-24 18:32N 22°30' E 120°15'0 0.0
2016-Jun-24 17:26N 22°30' E 120°15'0 0.1
2016-Jun-24 16:33N 22°30' E 120°15'5 5.1
2016-Jun-24 15:33N 22°25' E 120°14'1010.0
2016-Jun-24 14:33N 22°15' E 120°12'  

Dump ship's entire track history